METAR Data
IDs: Format: Raw Decoded Include TAF

Data at: 0244 UTC 29 Nov 2020

METAR for:KLRJ (Le Mars Muni, IA, US)
Text:KLRJ 290235Z AUTO 00000KT 10SM CLR 02/M01 A2994 RMK AO2
Temperature: 2.0°C ( 36°F)
Dewpoint: -1.0°C ( 30°F) [RH = 80%]
Pressure (altimeter):29.94 inches Hg (1014.0 mb)
Winds:calm
Visibility:10 or more sm (16+ km)
Ceiling:at least 12,000 feet AGL
Clouds:sky clear below 12,000 feet AGL
QC Flag:automated observation with no human augmentation